sensor_id;sensor_type;location;lat;lon;timestamp;P1;durP1;ratioP1;P2;durP2;ratioP2
79668;SDS011;69136;52.614;6.976;2023-09-19T00:02:16;3.83;;;1.40;;
79668;SDS011;69136;52.614;6.976;2023-09-19T00:05:01;2.92;;;1.23;;
79668;SDS011;69136;52.614;6.976;2023-09-19T00:07:47;5.45;;;1.13;;
79668;SDS011;69136;52.614;6.976;2023-09-19T00:10:32;5.72;;;1.00;;
79668;SDS011;69136;52.614;6.976;2023-09-19T00:13:18;3.28;;;1.10;;
79668;SDS011;69136;52.614;6.976;2023-09-19T00:16:09;3.30;;;1.05;;
79668;SDS011;69136;52.614;6.976;2023-09-19T00:18:55;3.97;;;1.25;;
79668;SDS011;69136;52.614;6.976;2023-09-19T00:21:39;2.95;;;1.23;;
79668;SDS011;69136;52.614;6.976;2023-09-19T00:24:25;3.88;;;1.50;;
79668;SDS011;69136;52.614;6.976;2023-09-19T00:27:09;2.83;;;1.10;;
79668;SDS011;69136;52.614;6.976;2023-09-19T00:29:53;4.28;;;1.20;;
79668;SDS011;69136;52.614;6.976;2023-09-19T00:32:38;6.72;;;1.60;;
79668;SDS011;69136;52.614;6.976;2023-09-19T00:35:22;5.25;;;2.38;;
79668;SDS011;69136;52.614;6.976;2023-09-19T00:38:09;4.65;;;1.20;;
79668;SDS011;69136;52.614;6.976;2023-09-19T00:40:54;4.10;;;1.23;;
79668;SDS011;69136;52.614;6.976;2023-09-19T00:43:41;2.30;;;1.30;;
79668;SDS011;69136;52.614;6.976;2023-09-19T00:46:25;6.60;;;1.50;;
79668;SDS011;69136;52.614;6.976;2023-09-19T00:49:10;6.60;;;1.80;;
79668;SDS011;69136;52.614;6.976;2023-09-19T00:51:54;5.57;;;1.30;;
79668;SDS011;69136;52.614;6.976;2023-09-19T00:54:38;4.55;;;1.52;;
79668;SDS011;69136;52.614;6.976;2023-09-19T00:57:23;4.82;;;1.92;;
79668;SDS011;69136;52.614;6.976;2023-09-19T01:00:08;4.15;;;1.17;;
79668;SDS011;69136;52.614;6.976;2023-09-19T01:02:59;5.68;;;1.80;;
79668;SDS011;69136;52.614;6.976;2023-09-19T01:05:47;5.10;;;1.73;;
79668;SDS011;69136;52.614;6.976;2023-09-19T01:08:31;4.82;;;1.45;;
79668;SDS011;69136;52.614;6.976;2023-09-19T01:11:25;6.07;;;1.52;;
79668;SDS011;69136;52.614;6.976;2023-09-19T01:14:31;5.30;;;1.30;;
79668;SDS011;69136;52.614;6.976;2023-09-19T01:17:25;4.40;;;1.42;;
79668;SDS011;69136;52.614;6.976;2023-09-19T01:20:21;5.25;;;1.58;;
79668;SDS011;69136;52.614;6.976;2023-09-19T01:30:13;4.47;;;1.17;;
79668;SDS011;69136;52.614;6.976;2023-09-19T01:32:59;4.72;;;1.30;;
79668;SDS011;69136;52.614;6.976;2023-09-19T01:35:43;5.25;;;1.73;;
79668;SDS011;69136;52.614;6.976;2023-09-19T01:38:28;5.55;;;1.50;;
79668;SDS011;69136;52.614;6.976;2023-09-19T01:41:12;8.32;;;1.35;;
79668;SDS011;69136;52.614;6.976;2023-09-19T01:44:03;6.55;;;1.70;;
79668;SDS011;69136;52.614;6.976;2023-09-19T01:46:50;6.63;;;1.70;;
79668;SDS011;69136;52.614;6.976;2023-09-19T01:52:54;6.50;;;1.58;;
79668;SDS011;69136;52.614;6.976;2023-09-19T01:55:46;3.97;;;1.10;;
79668;SDS011;69136;52.614;6.976;2023-09-19T01:58:52;3.90;;;0.98;;
79668;SDS011;69136;52.614;6.976;2023-09-19T02:01:38;5.50;;;1.30;;
79668;SDS011;69136;52.614;6.976;2023-09-19T02:04:23;6.63;;;1.42;;
79668;SDS011;69136;52.614;6.976;2023-09-19T02:07:07;3.67;;;1.30;;
79668;SDS011;69136;52.614;6.976;2023-09-19T02:09:52;3.70;;;1.20;;
79668;SDS011;69136;52.614;6.976;2023-09-19T02:12:36;4.63;;;1.30;;
79668;SDS011;69136;52.614;6.976;2023-09-19T02:15:22;5.45;;;1.27;;
79668;SDS011;69136;52.614;6.976;2023-09-19T02:18:06;6.53;;;1.35;;
79668;SDS011;69136;52.614;6.976;2023-09-19T02:20:52;8.00;;;1.58;;
79668;SDS011;69136;52.614;6.976;2023-09-19T02:23:37;8.38;;;1.80;;
79668;SDS011;69136;52.614;6.976;2023-09-19T02:26:22;6.85;;;1.17;;
79668;SDS011;69136;52.614;6.976;2023-09-19T02:29:11;6.07;;;1.15;;
79668;SDS011;69136;52.614;6.976;2023-09-19T02:31:56;7.72;;;1.50;;
79668;SDS011;69136;52.614;6.976;2023-09-19T02:34:41;4.60;;;1.20;;
79668;SDS011;69136;52.614;6.976;2023-09-19T02:37:25;7.38;;;1.30;;
79668;SDS011;69136;52.614;6.976;2023-09-19T02:40:10;5.65;;;1.33;;
79668;SDS011;69136;52.614;6.976;2023-09-19T02:43:02;5.85;;;1.45;;
79668;SDS011;69136;52.614;6.976;2023-09-19T02:45:47;6.88;;;1.40;;
79668;SDS011;69136;52.614;6.976;2023-09-19T02:48:33;4.68;;;1.00;;
79668;SDS011;69136;52.614;6.976;2023-09-19T02:51:19;5.47;;;1.63;;
79668;SDS011;69136;52.614;6.976;2023-09-19T02:54:04;4.05;;;1.00;;
79668;SDS011;69136;52.614;6.976;2023-09-19T02:56:49;4.00;;;1.00;;
79668;SDS011;69136;52.614;6.976;2023-09-19T02:59:33;4.80;;;1.30;;
79668;SDS011;69136;52.614;6.976;2023-09-19T03:02:20;5.25;;;1.35;;
79668;SDS011;69136;52.614;6.976;2023-09-19T03:05:09;7.47;;;1.10;;
79668;SDS011;69136;52.614;6.976;2023-09-19T03:07:56;6.70;;;1.20;;
79668;SDS011;69136;52.614;6.976;2023-09-19T03:10:41;3.28;;;1.20;;
79668;SDS011;69136;52.614;6.976;2023-09-19T03:13:25;4.57;;;2.00;;
79668;SDS011;69136;52.614;6.976;2023-09-19T03:16:10;4.80;;;1.48;;
79668;SDS011;69136;52.614;6.976;2023-09-19T03:18:54;9.13;;;1.60;;
79668;SDS011;69136;52.614;6.976;2023-09-19T03:21:40;9.32;;;1.42;;
79668;SDS011;69136;52.614;6.976;2023-09-19T03:24:25;7.00;;;1.80;;
79668;SDS011;69136;52.614;6.976;2023-09-19T03:27:10;6.35;;;1.70;;
79668;SDS011;69136;52.614;6.976;2023-09-19T03:29:55;4.78;;;1.17;;
79668;SDS011;69136;52.614;6.976;2023-09-19T03:32:48;5.07;;;1.50;;
79668;SDS011;69136;52.614;6.976;2023-09-19T03:35:34;4.63;;;1.30;;
79668;SDS011;69136;52.614;6.976;2023-09-19T03:38:19;6.55;;;1.90;;
79668;SDS011;69136;52.614;6.976;2023-09-19T03:41:05;6.18;;;1.23;;
79668;SDS011;69136;52.614;6.976;2023-09-19T03:43:52;6.25;;;1.88;;
79668;SDS011;69136;52.614;6.976;2023-09-19T03:46:37;6.75;;;1.77;;
79668;SDS011;69136;52.614;6.976;2023-09-19T03:49:22;5.32;;;1.30;;
79668;SDS011;69136;52.614;6.976;2023-09-19T03:52:07;7.90;;;1.45;;
79668;SDS011;69136;52.614;6.976;2023-09-19T03:54:51;5.05;;;1.70;;
79668;SDS011;69136;52.614;6.976;2023-09-19T03:57:36;7.10;;;2.10;;
79668;SDS011;69136;52.614;6.976;2023-09-19T04:00:20;7.13;;;1.77;;
79668;SDS011;69136;52.614;6.976;2023-09-19T04:03:07;8.45;;;2.42;;
79668;SDS011;69136;52.614;6.976;2023-09-19T04:05:52;8.38;;;1.92;;
79668;SDS011;69136;52.614;6.976;2023-09-19T04:08:36;9.60;;;2.08;;
79668;SDS011;69136;52.614;6.976;2023-09-19T04:11:21;8.90;;;1.60;;
79668;SDS011;69136;52.614;6.976;2023-09-19T04:14:05;5.70;;;1.83;;
79668;SDS011;69136;52.614;6.976;2023-09-19T04:16:49;9.57;;;1.88;;
79668;SDS011;69136;52.614;6.976;2023-09-19T04:19:34;8.80;;;1.83;;
79668;SDS011;69136;52.614;6.976;2023-09-19T04:22:18;7.57;;;2.22;;
79668;SDS011;69136;52.614;6.976;2023-09-19T04:25:02;9.10;;;1.88;;
79668;SDS011;69136;52.614;6.976;2023-09-19T04:27:47;6.13;;;1.70;;
79668;SDS011;69136;52.614;6.976;2023-09-19T04:30:31;5.28;;;1.55;;
79668;SDS011;69136;52.614;6.976;2023-09-19T04:33:15;5.55;;;2.20;;
79668;SDS011;69136;52.614;6.976;2023-09-19T04:36:00;6.93;;;1.95;;
79668;SDS011;69136;52.614;6.976;2023-09-19T04:38:44;4.85;;;1.33;;
79668;SDS011;69136;52.614;6.976;2023-09-19T04:41:28;5.88;;;1.55;;
79668;SDS011;69136;52.614;6.976;2023-09-19T04:44:12;8.98;;;1.90;;
79668;SDS011;69136;52.614;6.976;2023-09-19T04:46:58;9.40;;;1.80;;
79668;SDS011;69136;52.614;6.976;2023-09-19T04:49:43;10.18;;;1.90;;
79668;SDS011;69136;52.614;6.976;2023-09-19T04:52:27;5.18;;;1.42;;
79668;SDS011;69136;52.614;6.976;2023-09-19T04:55:14;7.93;;;1.60;;
79668;SDS011;69136;52.614;6.976;2023-09-19T04:58:02;9.18;;;1.88;;
79668;SDS011;69136;52.614;6.976;2023-09-19T05:00:47;8.43;;;1.60;;
79668;SDS011;69136;52.614;6.976;2023-09-19T05:03:32;5.18;;;1.35;;
79668;SDS011;69136;52.614;6.976;2023-09-19T05:06:15;7.95;;;1.73;;
79668;SDS011;69136;52.614;6.976;2023-09-19T05:09:00;7.03;;;1.70;;
79668;SDS011;69136;52.614;6.976;2023-09-19T05:11:44;9.15;;;1.52;;
79668;SDS011;69136;52.614;6.976;2023-09-19T05:14:28;5.78;;;1.42;;
79668;SDS011;69136;52.614;6.976;2023-09-19T05:17:13;5.45;;;1.65;;
79668;SDS011;69136;52.614;6.976;2023-09-19T05:19:57;10.50;;;1.77;;
79668;SDS011;69136;52.614;6.976;2023-09-19T05:22:42;7.75;;;2.15;;
79668;SDS011;69136;52.614;6.976;2023-09-19T05:25:27;6.60;;;1.42;;
79668;SDS011;69136;52.614;6.976;2023-09-19T05:28:13;10.57;;;1.90;;
79668;SDS011;69136;52.614;6.976;2023-09-19T05:31:00;5.18;;;1.30;;
79668;SDS011;69136;52.614;6.976;2023-09-19T05:33:46;7.50;;;1.25;;
79668;SDS011;69136;52.614;6.976;2023-09-19T05:36:30;5.43;;;2.00;;
79668;SDS011;69136;52.614;6.976;2023-09-19T05:39:14;6.68;;;1.30;;
79668;SDS011;69136;52.614;6.976;2023-09-19T05:41:59;5.75;;;1.30;;
79668;SDS011;69136;52.614;6.976;2023-09-19T05:44:44;7.90;;;1.67;;
79668;SDS011;69136;52.614;6.976;2023-09-19T05:47:28;9.63;;;2.30;;
79668;SDS011;69136;52.614;6.976;2023-09-19T05:50:12;8.02;;;1.80;;
79668;SDS011;69136;52.614;6.976;2023-09-19T05:52:58;10.10;;;1.48;;
79668;SDS011;69136;52.614;6.976;2023-09-19T05:55:43;7.40;;;1.60;;
79668;SDS011;69136;52.614;6.976;2023-09-19T05:58:27;10.82;;;2.38;;
79668;SDS011;69136;52.614;6.976;2023-09-19T06:01:12;8.15;;;1.50;;
79668;SDS011;69136;52.614;6.976;2023-09-19T06:03:56;9.88;;;1.73;;
79668;SDS011;69136;52.614;6.976;2023-09-19T06:06:40;7.88;;;2.20;;
79668;SDS011;69136;52.614;6.976;2023-09-19T06:09:25;8.00;;;1.95;;
79668;SDS011;69136;52.614;6.976;2023-09-19T06:12:11;7.00;;;1.67;;
79668;SDS011;69136;52.614;6.976;2023-09-19T06:14:56;5.50;;;1.50;;
79668;SDS011;69136;52.614;6.976;2023-09-19T06:17:45;9.10;;;1.55;;
79668;SDS011;69136;52.614;6.976;2023-09-19T06:23:15;6.82;;;1.70;;
79668;SDS011;69136;52.614;6.976;2023-09-19T06:25:59;8.02;;;1.60;;
79668;SDS011;69136;52.614;6.976;2023-09-19T06:28:43;8.65;;;2.13;;
79668;SDS011;69136;52.614;6.976;2023-09-19T06:31:28;7.82;;;1.55;;
79668;SDS011;69136;52.614;6.976;2023-09-19T06:34:12;9.50;;;1.65;;
79668;SDS011;69136;52.614;6.976;2023-09-19T06:36:59;9.20;;;2.00;;
79668;SDS011;69136;52.614;6.976;2023-09-19T06:39:43;4.95;;;1.58;;
79668;SDS011;69136;52.614;6.976;2023-09-19T06:42:27;5.68;;;1.40;;
79668;SDS011;69136;52.614;6.976;2023-09-19T06:45:12;5.72;;;1.25;;
79668;SDS011;69136;52.614;6.976;2023-09-19T06:48:01;9.70;;;1.67;;
79668;SDS011;69136;52.614;6.976;2023-09-19T06:50:46;5.35;;;1.52;;
79668;SDS011;69136;52.614;6.976;2023-09-19T06:53:32;5.28;;;1.58;;
79668;SDS011;69136;52.614;6.976;2023-09-19T06:56:16;6.57;;;1.67;;
79668;SDS011;69136;52.614;6.976;2023-09-19T06:59:00;12.73;;;1.50;;
79668;SDS011;69136;52.614;6.976;2023-09-19T07:01:46;9.77;;;2.80;;
79668;SDS011;69136;52.614;6.976;2023-09-19T07:04:31;7.80;;;1.65;;
79668;SDS011;69136;52.614;6.976;2023-09-19T07:07:16;6.32;;;1.70;;
79668;SDS011;69136;52.614;6.976;2023-09-19T07:10:01;6.88;;;1.40;;
79668;SDS011;69136;52.614;6.976;2023-09-19T07:12:46;8.30;;;1.67;;
79668;SDS011;69136;52.614;6.976;2023-09-19T07:15:32;7.00;;;1.73;;
79668;SDS011;69136;52.614;6.976;2023-09-19T07:18:20;9.38;;;1.92;;
79668;SDS011;69136;52.614;6.976;2023-09-19T07:21:05;8.02;;;1.67;;
79668;SDS011;69136;52.614;6.976;2023-09-19T07:23:49;5.53;;;1.38;;
79668;SDS011;69136;52.614;6.976;2023-09-19T07:26:34;7.28;;;1.60;;
79668;SDS011;69136;52.614;6.976;2023-09-19T07:29:18;6.95;;;1.30;;
79668;SDS011;69136;52.614;6.976;2023-09-19T07:32:02;6.50;;;1.20;;
79668;SDS011;69136;52.614;6.976;2023-09-19T07:34:46;5.53;;;1.85;;
79668;SDS011;69136;52.614;6.976;2023-09-19T07:37:30;8.65;;;1.75;;
79668;SDS011;69136;52.614;6.976;2023-09-19T07:40:17;5.53;;;1.27;;
79668;SDS011;69136;52.614;6.976;2023-09-19T07:43:02;8.55;;;1.83;;
79668;SDS011;69136;52.614;6.976;2023-09-19T07:45:48;9.05;;;1.98;;
79668;SDS011;69136;52.614;6.976;2023-09-19T07:48:33;8.75;;;1.58;;
79668;SDS011;69136;52.614;6.976;2023-09-19T07:51:20;6.95;;;2.13;;
79668;SDS011;69136;52.614;6.976;2023-09-19T07:54:03;9.00;;;1.98;;
79668;SDS011;69136;52.614;6.976;2023-09-19T07:56:48;7.45;;;1.67;;
79668;SDS011;69136;52.614;6.976;2023-09-19T07:59:32;7.15;;;1.60;;
79668;SDS011;69136;52.614;6.976;2023-09-19T08:02:17;8.13;;;2.03;;
79668;SDS011;69136;52.614;6.976;2023-09-19T08:05:02;6.07;;;1.98;;
79668;SDS011;69136;52.614;6.976;2023-09-19T08:07:50;8.07;;;1.50;;
79668;SDS011;69136;52.614;6.976;2023-09-19T08:10:34;5.93;;;1.77;;
79668;SDS011;69136;52.614;6.976;2023-09-19T08:13:19;8.25;;;1.70;;
79668;SDS011;69136;52.614;6.976;2023-09-19T08:16:05;6.93;;;1.95;;
79668;SDS011;69136;52.614;6.976;2023-09-19T08:18:49;7.82;;;1.63;;
79668;SDS011;69136;52.614;6.976;2023-09-19T08:21:37;10.07;;;1.77;;
79668;SDS011;69136;52.614;6.976;2023-09-19T08:24:21;8.02;;;1.67;;
79668;SDS011;69136;52.614;6.976;2023-09-19T08:27:05;10.00;;;1.67;;
79668;SDS011;69136;52.614;6.976;2023-09-19T08:29:53;6.43;;;2.28;;
79668;SDS011;69136;52.614;6.976;2023-09-19T08:32:37;11.82;;;1.95;;
79668;SDS011;69136;52.614;6.976;2023-09-19T08:35:23;8.75;;;1.63;;
79668;SDS011;69136;52.614;6.976;2023-09-19T08:38:07;6.85;;;1.50;;
79668;SDS011;69136;52.614;6.976;2023-09-19T08:40:52;8.77;;;1.45;;
79668;SDS011;69136;52.614;6.976;2023-09-19T08:43:36;7.93;;;1.52;;
79668;SDS011;69136;52.614;6.976;2023-09-19T08:46:20;9.05;;;1.90;;
79668;SDS011;69136;52.614;6.976;2023-09-19T08:49:08;10.98;;;1.95;;
79668;SDS011;69136;52.614;6.976;2023-09-19T08:52:07;12.23;;;2.22;;
79668;SDS011;69136;52.614;6.976;2023-09-19T08:54:58;8.80;;;2.30;;
79668;SDS011;69136;52.614;6.976;2023-09-19T08:57:45;8.68;;;2.10;;
79668;SDS011;69136;52.614;6.976;2023-09-19T09:00:33;9.07;;;1.88;;
79668;SDS011;69136;52.614;6.976;2023-09-19T09:03:18;10.38;;;2.00;;
79668;SDS011;69136;52.614;6.976;2023-09-19T09:06:04;10.63;;;1.75;;
79668;SDS011;69136;52.614;6.976;2023-09-19T09:08:52;6.55;;;1.30;;
79668;SDS011;69136;52.614;6.976;2023-09-19T09:11:37;9.27;;;2.08;;
79668;SDS011;69136;52.614;6.976;2023-09-19T09:14:23;10.98;;;1.77;;
79668;SDS011;69136;52.614;6.976;2023-09-19T09:17:08;8.93;;;1.90;;
79668;SDS011;69136;52.614;6.976;2023-09-19T09:19:54;7.80;;;1.60;;
79668;SDS011;69136;52.614;6.976;2023-09-19T09:22:38;12.02;;;2.20;;
79668;SDS011;69136;52.614;6.976;2023-09-19T09:28:46;6.68;;;1.80;;
79668;SDS011;69136;52.614;6.976;2023-09-19T09:31:36;7.55;;;1.63;;
79668;SDS011;69136;52.614;6.976;2023-09-19T09:34:21;8.07;;;1.65;;
79668;SDS011;69136;52.614;6.976;2023-09-19T09:37:08;8.30;;;1.90;;
79668;SDS011;69136;52.614;6.976;2023-09-19T09:39:59;5.30;;;1.75;;
79668;SDS011;69136;52.614;6.976;2023-09-19T09:43:03;8.25;;;1.70;;
79668;SDS011;69136;52.614;6.976;2023-09-19T09:46:18;7.65;;;1.63;;
79668;SDS011;69136;52.614;6.976;2023-09-19T09:49:05;10.32;;;1.70;;
79668;SDS011;69136;52.614;6.976;2023-09-19T09:52:04;7.43;;;1.75;;
79668;SDS011;69136;52.614;6.976;2023-09-19T09:55:00;8.80;;;2.10;;
79668;SDS011;69136;52.614;6.976;2023-09-19T09:57:52;8.65;;;2.00;;
79668;SDS011;69136;52.614;6.976;2023-09-19T10:01:01;7.38;;;1.92;;
79668;SDS011;69136;52.614;6.976;2023-09-19T10:03:57;7.90;;;1.60;;
79668;SDS011;69136;52.614;6.976;2023-09-19T10:06:44;7.35;;;1.67;;
79668;SDS011;69136;52.614;6.976;2023-09-19T10:09:44;7.18;;;1.40;;
79668;SDS011;69136;52.614;6.976;2023-09-19T10:12:29;9.30;;;2.05;;
79668;SDS011;69136;52.614;6.976;2023-09-19T10:15:17;7.80;;;1.90;;
79668;SDS011;69136;52.614;6.976;2023-09-19T10:18:04;10.25;;;2.28;;
79668;SDS011;69136;52.614;6.976;2023-09-19T10:20:52;9.00;;;1.60;;
79668;SDS011;69136;52.614;6.976;2023-09-19T10:23:36;6.85;;;1.73;;
79668;SDS011;69136;52.614;6.976;2023-09-19T10:26:22;8.27;;;2.08;;
79668;SDS011;69136;52.614;6.976;2023-09-19T10:29:07;8.18;;;1.77;;
79668;SDS011;69136;52.614;6.976;2023-09-19T10:31:53;9.60;;;1.77;;
79668;SDS011;69136;52.614;6.976;2023-09-19T10:34:38;10.93;;;2.08;;
79668;SDS011;69136;52.614;6.976;2023-09-19T10:37:25;9.50;;;2.10;;
79668;SDS011;69136;52.614;6.976;2023-09-19T10:40:10;7.32;;;1.88;;
79668;SDS011;69136;52.614;6.976;2023-09-19T10:43:05;9.55;;;2.38;;
79668;SDS011;69136;52.614;6.976;2023-09-19T10:45:49;12.05;;;2.25;;
79668;SDS011;69136;52.614;6.976;2023-09-19T10:48:36;8.75;;;1.77;;
79668;SDS011;69136;52.614;6.976;2023-09-19T10:51:22;8.30;;;1.88;;
79668;SDS011;69136;52.614;6.976;2023-09-19T10:54:11;6.43;;;1.40;;
79668;SDS011;69136;52.614;6.976;2023-09-19T10:56:57;7.50;;;1.45;;
79668;SDS011;69136;52.614;6.976;2023-09-19T11:00:00;8.38;;;1.90;;
79668;SDS011;69136;52.614;6.976;2023-09-19T11:06:05;7.10;;;1.60;;
79668;SDS011;69136;52.614;6.976;2023-09-19T11:09:03;9.23;;;1.70;;
79668;SDS011;69136;52.614;6.976;2023-09-19T11:11:59;7.05;;;1.65;;
79668;SDS011;69136;52.614;6.976;2023-09-19T11:14:44;4.97;;;1.80;;
79668;SDS011;69136;52.614;6.976;2023-09-19T11:17:32;6.00;;;2.03;;
79668;SDS011;69136;52.614;6.976;2023-09-19T11:20:26;9.10;;;1.95;;
79668;SDS011;69136;52.614;6.976;2023-09-19T11:23:37;8.30;;;1.60;;
79668;SDS011;69136;52.614;6.976;2023-09-19T11:26:40;9.20;;;1.75;;
79668;SDS011;69136;52.614;6.976;2023-09-19T11:29:42;9.35;;;1.50;;
79668;SDS011;69136;52.614;6.976;2023-09-19T11:33:15;9.15;;;1.55;;
79668;SDS011;69136;52.614;6.976;2023-09-19T11:41:40;6.70;;;1.90;;
79668;SDS011;69136;52.614;6.976;2023-09-19T11:47:10;7.13;;;1.35;;
79668;SDS011;69136;52.614;6.976;2023-09-19T11:49:54;8.85;;;1.90;;
79668;SDS011;69136;52.614;6.976;2023-09-19T11:52:38;8.32;;;2.50;;
79668;SDS011;69136;52.614;6.976;2023-09-19T11:55:25;6.07;;;1.63;;
79668;SDS011;69136;52.614;6.976;2023-09-19T11:58:09;6.93;;;1.55;;
79668;SDS011;69136;52.614;6.976;2023-09-19T12:00:56;5.63;;;1.48;;
79668;SDS011;69136;52.614;6.976;2023-09-19T12:03:45;5.78;;;1.30;;
79668;SDS011;69136;52.614;6.976;2023-09-19T12:06:31;6.55;;;1.70;;
79668;SDS011;69136;52.614;6.976;2023-09-19T12:09:19;5.75;;;1.70;;
79668;SDS011;69136;52.614;6.976;2023-09-19T12:12:04;8.43;;;1.83;;
79668;SDS011;69136;52.614;6.976;2023-09-19T12:14:48;7.88;;;2.33;;
79668;SDS011;69136;52.614;6.976;2023-09-19T12:17:37;8.32;;;1.60;;
79668;SDS011;69136;52.614;6.976;2023-09-19T12:20:24;10.05;;;2.15;;
79668;SDS011;69136;52.614;6.976;2023-09-19T12:23:13;6.53;;;1.30;;
79668;SDS011;69136;52.614;6.976;2023-09-19T12:25:58;6.95;;;1.75;;
79668;SDS011;69136;52.614;6.976;2023-09-19T12:28:42;6.38;;;1.55;;
79668;SDS011;69136;52.614;6.976;2023-09-19T12:31:27;8.95;;;2.28;;
79668;SDS011;69136;52.614;6.976;2023-09-19T12:34:12;8.07;;;1.73;;
79668;SDS011;69136;52.614;6.976;2023-09-19T12:37:04;6.95;;;1.73;;
79668;SDS011;69136;52.614;6.976;2023-09-19T12:40:05;6.72;;;1.30;;
79668;SDS011;69136;52.614;6.976;2023-09-19T12:42:58;8.73;;;1.52;;
79668;SDS011;69136;52.614;6.976;2023-09-19T12:45:43;4.30;;;1.35;;
79668;SDS011;69136;52.614;6.976;2023-09-19T12:48:28;8.25;;;1.60;;
79668;SDS011;69136;52.614;6.976;2023-09-19T12:51:17;11.00;;;1.50;;
79668;SDS011;69136;52.614;6.976;2023-09-19T12:54:06;4.80;;;1.38;;
79668;SDS011;69136;52.614;6.976;2023-09-19T12:56:52;7.93;;;1.20;;
79668;SDS011;69136;52.614;6.976;2023-09-19T12:59:38;4.30;;;1.17;;
79668;SDS011;69136;52.614;6.976;2023-09-19T13:02:22;8.63;;;1.52;;
79668;SDS011;69136;52.614;6.976;2023-09-19T13:05:08;6.07;;;1.42;;
79668;SDS011;69136;52.614;6.976;2023-09-19T13:07:54;4.38;;;0.98;;
79668;SDS011;69136;52.614;6.976;2023-09-19T13:14:17;7.85;;;1.45;;
79668;SDS011;69136;52.614;6.976;2023-09-19T13:17:04;4.20;;;1.02;;
79668;SDS011;69136;52.614;6.976;2023-09-19T13:19:50;5.75;;;1.50;;
79668;SDS011;69136;52.614;6.976;2023-09-19T13:22:42;6.68;;;1.25;;
79668;SDS011;69136;52.614;6.976;2023-09-19T13:25:28;6.53;;;1.40;;
79668;SDS011;69136;52.614;6.976;2023-09-19T13:28:13;4.95;;;1.65;;
79668;SDS011;69136;52.614;6.976;2023-09-19T13:30:58;6.47;;;1.88;;
79668;SDS011;69136;52.614;6.976;2023-09-19T13:33:43;6.10;;;1.55;;
79668;SDS011;69136;52.614;6.976;2023-09-19T13:36:31;6.53;;;1.58;;
79668;SDS011;69136;52.614;6.976;2023-09-19T13:39:15;2.92;;;1.25;;
79668;SDS011;69136;52.614;6.976;2023-09-19T13:42:00;6.72;;;1.52;;
79668;SDS011;69136;52.614;6.976;2023-09-19T13:44:46;4.40;;;1.33;;
79668;SDS011;69136;52.614;6.976;2023-09-19T13:47:30;4.78;;;1.20;;
79668;SDS011;69136;52.614;6.976;2023-09-19T13:50:14;6.38;;;1.80;;
79668;SDS011;69136;52.614;6.976;2023-09-19T13:52:59;5.60;;;1.25;;
79668;SDS011;69136;52.614;6.976;2023-09-19T13:55:44;6.55;;;1.05;;
79668;SDS011;69136;52.614;6.976;2023-09-19T13:58:28;5.80;;;1.20;;
79668;SDS011;69136;52.614;6.976;2023-09-19T14:01:13;4.40;;;1.05;;
79668;SDS011;69136;52.614;6.976;2023-09-19T14:03:57;5.10;;;0.93;;
79668;SDS011;69136;52.614;6.976;2023-09-19T14:06:42;3.38;;;1.10;;
79668;SDS011;69136;52.614;6.976;2023-09-19T14:09:27;5.07;;;1.33;;
79668;SDS011;69136;52.614;6.976;2023-09-19T14:12:11;5.22;;;1.30;;
79668;SDS011;69136;52.614;6.976;2023-09-19T14:14:56;5.95;;;1.40;;
79668;SDS011;69136;52.614;6.976;2023-09-19T14:17:40;6.68;;;1.27;;
79668;SDS011;69136;52.614;6.976;2023-09-19T14:20:30;5.03;;;1.33;;
79668;SDS011;69136;52.614;6.976;2023-09-19T14:23:15;4.63;;;1.20;;
79668;SDS011;69136;52.614;6.976;2023-09-19T14:26:00;6.78;;;1.05;;
79668;SDS011;69136;52.614;6.976;2023-09-19T14:28:45;5.10;;;1.58;;
79668;SDS011;69136;52.614;6.976;2023-09-19T14:31:29;3.92;;;0.82;;
79668;SDS011;69136;52.614;6.976;2023-09-19T14:34:14;5.05;;;1.10;;
79668;SDS011;69136;52.614;6.976;2023-09-19T14:36:58;6.50;;;1.25;;
79668;SDS011;69136;52.614;6.976;2023-09-19T14:39:43;4.68;;;1.27;;
79668;SDS011;69136;52.614;6.976;2023-09-19T14:42:28;5.47;;;1.08;;
79668;SDS011;69136;52.614;6.976;2023-09-19T14:45:12;5.15;;;1.33;;
79668;SDS011;69136;52.614;6.976;2023-09-19T14:47:58;5.72;;;1.05;;
79668;SDS011;69136;52.614;6.976;2023-09-19T14:50:42;3.53;;;1.30;;
79668;SDS011;69136;52.614;6.976;2023-09-19T14:53:27;2.17;;;0.95;;
79668;SDS011;69136;52.614;6.976;2023-09-19T14:56:12;9.30;;;1.20;;
79668;SDS011;69136;52.614;6.976;2023-09-19T14:58:57;4.25;;;0.95;;
79668;SDS011;69136;52.614;6.976;2023-09-19T15:01:41;3.75;;;0.80;;
79668;SDS011;69136;52.614;6.976;2023-09-19T15:04:26;3.90;;;0.90;;
79668;SDS011;69136;52.614;6.976;2023-09-19T15:07:12;2.90;;;0.65;;
79668;SDS011;69136;52.614;6.976;2023-09-19T15:09:58;3.65;;;1.08;;
79668;SDS011;69136;52.614;6.976;2023-09-19T15:12:43;4.88;;;1.00;;
79668;SDS011;69136;52.614;6.976;2023-09-19T15:15:27;2.65;;;0.88;;
79668;SDS011;69136;52.614;6.976;2023-09-19T15:18:12;5.00;;;1.00;;
79668;SDS011;69136;52.614;6.976;2023-09-19T15:21:02;3.58;;;1.13;;
79668;SDS011;69136;52.614;6.976;2023-09-19T15:23:49;2.85;;;0.73;;
79668;SDS011;69136;52.614;6.976;2023-09-19T15:26:33;3.15;;;0.70;;
79668;SDS011;69136;52.614;6.976;2023-09-19T15:29:18;1.73;;;0.50;;
79668;SDS011;69136;52.614;6.976;2023-09-19T15:32:03;2.70;;;0.75;;
79668;SDS011;69136;52.614;6.976;2023-09-19T15:34:47;3.92;;;0.75;;
79668;SDS011;69136;52.614;6.976;2023-09-19T15:37:32;2.08;;;0.70;;
79668;SDS011;69136;52.614;6.976;2023-09-19T15:40:16;4.10;;;0.73;;
79668;SDS011;69136;52.614;6.976;2023-09-19T15:43:00;5.20;;;0.90;;
79668;SDS011;69136;52.614;6.976;2023-09-19T15:45:44;4.90;;;0.70;;
79668;SDS011;69136;52.614;6.976;2023-09-19T15:48:29;6.07;;;0.80;;
79668;SDS011;69136;52.614;6.976;2023-09-19T15:51:13;1.75;;;0.70;;
79668;SDS011;69136;52.614;6.976;2023-09-19T15:54:01;2.28;;;1.15;;
79668;SDS011;69136;52.614;6.976;2023-09-19T15:56:46;5.13;;;1.00;;
79668;SDS011;69136;52.614;6.976;2023-09-19T15:59:30;3.72;;;0.93;;
79668;SDS011;69136;52.614;6.976;2023-09-19T16:02:14;2.55;;;1.02;;
79668;SDS011;69136;52.614;6.976;2023-09-19T16:04:59;3.45;;;1.10;;
79668;SDS011;69136;52.614;6.976;2023-09-19T16:07:49;7.75;;;1.20;;
79668;SDS011;69136;52.614;6.976;2023-09-19T16:10:36;6.75;;;1.38;;
79668;SDS011;69136;52.614;6.976;2023-09-19T16:13:22;5.75;;;0.90;;
79668;SDS011;69136;52.614;6.976;2023-09-19T16:16:09;4.85;;;0.90;;
79668;SDS011;69136;52.614;6.976;2023-09-19T16:18:59;2.88;;;0.85;;
79668;SDS011;69136;52.614;6.976;2023-09-19T16:21:48;3.90;;;0.98;;
79668;SDS011;69136;52.614;6.976;2023-09-19T16:24:33;5.47;;;0.70;;
79668;SDS011;69136;52.614;6.976;2023-09-19T16:27:18;3.80;;;0.90;;
79668;SDS011;69136;52.614;6.976;2023-09-19T16:30:05;2.55;;;0.70;;
79668;SDS011;69136;52.614;6.976;2023-09-19T16:32:50;1.75;;;0.75;;
79668;SDS011;69136;52.614;6.976;2023-09-19T16:35:36;3.65;;;1.17;;
79668;SDS011;69136;52.614;6.976;2023-09-19T16:38:22;2.30;;;1.00;;
79668;SDS011;69136;52.614;6.976;2023-09-19T16:41:07;3.13;;;1.48;;
79668;SDS011;69136;52.614;6.976;2023-09-19T16:43:52;4.93;;;1.48;;
79668;SDS011;69136;52.614;6.976;2023-09-19T16:46:36;3.60;;;0.90;;
79668;SDS011;69136;52.614;6.976;2023-09-19T16:49:21;3.38;;;1.23;;
79668;SDS011;69136;52.614;6.976;2023-09-19T16:52:05;5.28;;;1.98;;
79668;SDS011;69136;52.614;6.976;2023-09-19T16:54:49;2.58;;;0.85;;
79668;SDS011;69136;52.614;6.976;2023-09-19T16:57:35;3.80;;;1.02;;
79668;SDS011;69136;52.614;6.976;2023-09-19T17:00:19;4.85;;;0.95;;
79668;SDS011;69136;52.614;6.976;2023-09-19T17:03:04;4.90;;;0.80;;
79668;SDS011;69136;52.614;6.976;2023-09-19T17:05:48;5.05;;;1.27;;
79668;SDS011;69136;52.614;6.976;2023-09-19T17:08:33;4.38;;;0.90;;
79668;SDS011;69136;52.614;6.976;2023-09-19T17:11:17;2.60;;;0.75;;
79668;SDS011;69136;52.614;6.976;2023-09-19T17:14:02;3.55;;;0.88;;
79668;SDS011;69136;52.614;6.976;2023-09-19T17:16:47;2.85;;;0.70;;